sensor_id;sensor_type;location;lat;lon;timestamp;P1;durP1;ratioP1;P2;durP2;ratioP2
434;SDS011;204;48.942;9.256;2022-10-31T00:00:42;13.97;;;10.80;;
434;SDS011;204;48.942;9.256;2022-10-31T00:03:07;12.00;;;10.00;;
434;SDS011;204;48.942;9.256;2022-10-31T00:05:33;16.17;;;10.97;;
434;SDS011;204;48.942;9.256;2022-10-31T00:07:58;13.50;;;11.03;;
434;SDS011;204;48.942;9.256;2022-10-31T00:10:24;14.10;;;10.07;;
434;SDS011;204;48.942;9.256;2022-10-31T00:12:49;14.87;;;11.50;;
434;SDS011;204;48.942;9.256;2022-10-31T00:15:16;14.05;;;9.80;;
434;SDS011;204;48.942;9.256;2022-10-31T00:17:41;12.47;;;10.60;;
434;SDS011;204;48.942;9.256;2022-10-31T00:20:07;10.40;;;9.63;;
434;SDS011;204;48.942;9.256;2022-10-31T00:22:33;17.02;;;10.70;;
434;SDS011;204;48.942;9.256;2022-10-31T00:24:59;11.17;;;9.03;;
434;SDS011;204;48.942;9.256;2022-10-31T00:27:24;11.37;;;8.70;;
434;SDS011;204;48.942;9.256;2022-10-31T00:29:50;12.70;;;9.30;;
434;SDS011;204;48.942;9.256;2022-10-31T00:32:15;15.03;;;10.30;;
434;SDS011;204;48.942;9.256;2022-10-31T00:34:41;11.60;;;9.73;;
434;SDS011;204;48.942;9.256;2022-10-31T00:37:06;13.03;;;10.60;;
434;SDS011;204;48.942;9.256;2022-10-31T00:39:32;15.00;;;11.10;;
434;SDS011;204;48.942;9.256;2022-10-31T00:41:57;18.93;;;10.33;;
434;SDS011;204;48.942;9.256;2022-10-31T00:44:23;16.93;;;10.80;;
434;SDS011;204;48.942;9.256;2022-10-31T00:46:48;11.63;;;9.20;;
434;SDS011;204;48.942;9.256;2022-10-31T00:49:14;12.80;;;10.00;;
434;SDS011;204;48.942;9.256;2022-10-31T00:51:39;13.03;;;9.57;;
434;SDS011;204;48.942;9.256;2022-10-31T00:54:05;11.33;;;9.70;;
434;SDS011;204;48.942;9.256;2022-10-31T00:56:31;10.53;;;9.97;;
434;SDS011;204;48.942;9.256;2022-10-31T00:58:56;12.53;;;10.17;;
434;SDS011;204;48.942;9.256;2022-10-31T01:01:22;10.73;;;8.70;;
434;SDS011;204;48.942;9.256;2022-10-31T01:03:47;9.50;;;7.93;;
434;SDS011;204;48.942;9.256;2022-10-31T01:06:13;12.07;;;8.70;;
434;SDS011;204;48.942;9.256;2022-10-31T01:08:39;13.13;;;9.70;;
434;SDS011;204;48.942;9.256;2022-10-31T01:13:36;9.13;;;8.45;;
434;SDS011;204;48.942;9.256;2022-10-31T01:16:03;10.27;;;8.73;;
434;SDS011;204;48.942;9.256;2022-10-31T01:18:29;12.88;;;9.80;;
434;SDS011;204;48.942;9.256;2022-10-31T01:23:35;13.35;;;9.05;;
434;SDS011;204;48.942;9.256;2022-10-31T01:26:02;10.70;;;8.65;;
434;SDS011;204;48.942;9.256;2022-10-31T01:28:33;11.40;;;8.95;;
434;SDS011;204;48.942;9.256;2022-10-31T01:31:08;9.75;;;7.50;;
434;SDS011;204;48.942;9.256;2022-10-31T01:33:34;12.43;;;8.85;;
434;SDS011;204;48.942;9.256;2022-10-31T01:36:01;10.50;;;9.20;;
434;SDS011;204;48.942;9.256;2022-10-31T01:38:36;12.25;;;8.18;;
434;SDS011;204;48.942;9.256;2022-10-31T01:41:01;7.90;;;7.20;;
434;SDS011;204;48.942;9.256;2022-10-31T01:43:41;10.60;;;8.53;;
434;SDS011;204;48.942;9.256;2022-10-31T01:46:12;12.35;;;8.65;;
434;SDS011;204;48.942;9.256;2022-10-31T01:48:40;10.77;;;7.93;;
434;SDS011;204;48.942;9.256;2022-10-31T01:51:06;15.70;;;8.65;;
434;SDS011;204;48.942;9.256;2022-10-31T01:53:33;10.77;;;8.70;;
434;SDS011;204;48.942;9.256;2022-10-31T01:56:00;13.05;;;8.40;;
434;SDS011;204;48.942;9.256;2022-10-31T01:58:27;11.33;;;8.60;;
434;SDS011;204;48.942;9.256;2022-10-31T02:00:56;12.02;;;8.30;;
434;SDS011;204;48.942;9.256;2022-10-31T02:03:24;9.13;;;7.55;;
434;SDS011;204;48.942;9.256;2022-10-31T02:05:51;10.38;;;8.45;;
434;SDS011;204;48.942;9.256;2022-10-31T02:08:21;11.35;;;8.90;;
434;SDS011;204;48.942;9.256;2022-10-31T02:10:51;11.38;;;8.27;;
434;SDS011;204;48.942;9.256;2022-10-31T02:13:17;11.13;;;8.95;;
434;SDS011;204;48.942;9.256;2022-10-31T02:15:44;11.75;;;8.18;;
434;SDS011;204;48.942;9.256;2022-10-31T02:18:12;9.48;;;8.32;;
434;SDS011;204;48.942;9.256;2022-10-31T02:20:43;11.40;;;8.85;;
434;SDS011;204;48.942;9.256;2022-10-31T02:33:54;11.93;;;8.13;;
434;SDS011;204;48.942;9.256;2022-10-31T02:44:19;15.30;;;8.52;;
434;SDS011;204;48.942;9.256;2022-10-31T02:46:48;10.93;;;9.05;;
434;SDS011;204;48.942;9.256;2022-10-31T02:49:29;13.95;;;8.13;;
434;SDS011;204;48.942;9.256;2022-10-31T02:52:01;9.60;;;8.00;;
434;SDS011;204;48.942;9.256;2022-10-31T02:54:27;12.80;;;8.33;;
434;SDS011;204;48.942;9.256;2022-10-31T02:56:58;13.80;;;8.65;;
434;SDS011;204;48.942;9.256;2022-10-31T02:59:29;12.52;;;7.80;;
434;SDS011;204;48.942;9.256;2022-10-31T03:15:39;11.87;;;8.60;;
434;SDS011;204;48.942;9.256;2022-10-31T03:21:03;12.90;;;8.02;;
434;SDS011;204;48.942;9.256;2022-10-31T03:23:29;9.80;;;7.95;;
434;SDS011;204;48.942;9.256;2022-10-31T03:25:56;12.23;;;7.05;;
434;SDS011;204;48.942;9.256;2022-10-31T03:28:29;14.25;;;7.97;;
434;SDS011;204;48.942;9.256;2022-10-31T03:31:00;12.15;;;7.60;;
434;SDS011;204;48.942;9.256;2022-10-31T03:33:28;10.23;;;8.55;;
434;SDS011;204;48.942;9.256;2022-10-31T03:35:59;9.25;;;7.65;;
434;SDS011;204;48.942;9.256;2022-10-31T03:38:29;18.15;;;7.47;;
434;SDS011;204;48.942;9.256;2022-10-31T03:40:56;17.70;;;7.47;;
434;SDS011;204;48.942;9.256;2022-10-31T03:43:27;9.13;;;7.25;;
434;SDS011;204;48.942;9.256;2022-10-31T03:45:55;8.70;;;7.80;;
434;SDS011;204;48.942;9.256;2022-10-31T03:48:21;12.60;;;6.63;;
434;SDS011;204;48.942;9.256;2022-10-31T03:53:26;7.50;;;6.03;;
434;SDS011;204;48.942;9.256;2022-10-31T03:58:34;10.35;;;7.13;;
434;SDS011;204;48.942;9.256;2022-10-31T04:01:05;14.05;;;7.22;;
434;SDS011;204;48.942;9.256;2022-10-31T04:03:34;11.88;;;7.47;;
434;SDS011;204;48.942;9.256;2022-10-31T04:06:03;10.15;;;7.30;;
434;SDS011;204;48.942;9.256;2022-10-31T04:08:33;12.40;;;7.55;;
434;SDS011;204;48.942;9.256;2022-10-31T04:11:06;11.13;;;6.45;;
434;SDS011;204;48.942;9.256;2022-10-31T04:13:36;12.20;;;7.60;;
434;SDS011;204;48.942;9.256;2022-10-31T04:16:04;11.30;;;7.43;;
434;SDS011;204;48.942;9.256;2022-10-31T04:18:30;9.57;;;7.45;;
434;SDS011;204;48.942;9.256;2022-10-31T04:21:06;11.50;;;7.73;;
434;SDS011;204;48.942;9.256;2022-10-31T04:23:32;10.55;;;7.40;;
434;SDS011;204;48.942;9.256;2022-10-31T04:25:59;8.32;;;6.72;;
434;SDS011;204;48.942;9.256;2022-10-31T04:28:24;8.53;;;7.37;;
434;SDS011;204;48.942;9.256;2022-10-31T04:30:50;8.63;;;6.43;;
434;SDS011;204;48.942;9.256;2022-10-31T04:33:16;11.47;;;7.77;;
434;SDS011;204;48.942;9.256;2022-10-31T04:35:42;9.03;;;7.43;;
434;SDS011;204;48.942;9.256;2022-10-31T04:38:07;7.40;;;7.00;;
434;SDS011;204;48.942;9.256;2022-10-31T04:40:33;10.33;;;8.20;;
434;SDS011;204;48.942;9.256;2022-10-31T04:42:58;9.13;;;8.20;;
434;SDS011;204;48.942;9.256;2022-10-31T04:45:24;8.93;;;7.40;;
434;SDS011;204;48.942;9.256;2022-10-31T04:47:49;18.03;;;7.17;;
434;SDS011;204;48.942;9.256;2022-10-31T04:50:15;10.33;;;7.37;;
434;SDS011;204;48.942;9.256;2022-10-31T04:52:44;14.50;;;7.27;;
434;SDS011;204;48.942;9.256;2022-10-31T04:55:11;9.68;;;7.47;;
434;SDS011;204;48.942;9.256;2022-10-31T04:57:45;12.40;;;7.82;;
434;SDS011;204;48.942;9.256;2022-10-31T05:00:12;9.20;;;7.90;;
434;SDS011;204;48.942;9.256;2022-10-31T05:02:58;10.23;;;7.28;;
434;SDS011;204;48.942;9.256;2022-10-31T05:05:25;9.30;;;6.65;;
434;SDS011;204;48.942;9.256;2022-10-31T05:07:53;11.10;;;7.85;;
434;SDS011;204;48.942;9.256;2022-10-31T05:10:20;17.33;;;10.63;;
434;SDS011;204;48.942;9.256;2022-10-31T05:12:51;36.80;;;27.33;;
434;SDS011;204;48.942;9.256;2022-10-31T05:15:18;20.05;;;15.30;;
434;SDS011;204;48.942;9.256;2022-10-31T05:17:46;11.82;;;7.82;;
434;SDS011;204;48.942;9.256;2022-10-31T05:20:12;10.27;;;8.30;;
434;SDS011;204;48.942;9.256;2022-10-31T05:22:45;9.68;;;8.82;;
434;SDS011;204;48.942;9.256;2022-10-31T05:25:12;17.42;;;9.20;;
434;SDS011;204;48.942;9.256;2022-10-31T05:27:38;11.37;;;7.13;;
434;SDS011;204;48.942;9.256;2022-10-31T05:30:08;12.70;;;7.32;;
434;SDS011;204;48.942;9.256;2022-10-31T05:32:38;7.43;;;6.35;;
434;SDS011;204;48.942;9.256;2022-10-31T05:35:05;10.05;;;6.60;;
434;SDS011;204;48.942;9.256;2022-10-31T05:37:33;10.70;;;7.63;;
434;SDS011;204;48.942;9.256;2022-10-31T05:40:00;11.52;;;7.75;;
434;SDS011;204;48.942;9.256;2022-10-31T05:42:26;8.80;;;6.80;;
434;SDS011;204;48.942;9.256;2022-10-31T05:44:51;9.03;;;6.53;;
434;SDS011;204;48.942;9.256;2022-10-31T05:47:17;9.83;;;6.53;;
434;SDS011;204;48.942;9.256;2022-10-31T05:49:42;11.53;;;9.40;;
434;SDS011;204;48.942;9.256;2022-10-31T05:52:08;13.60;;;10.60;;
434;SDS011;204;48.942;9.256;2022-10-31T05:54:33;14.23;;;13.43;;
434;SDS011;204;48.942;9.256;2022-10-31T05:56:59;13.87;;;10.20;;
434;SDS011;204;48.942;9.256;2022-10-31T05:59:24;16.30;;;11.43;;
434;SDS011;204;48.942;9.256;2022-10-31T06:01:50;10.17;;;8.03;;
434;SDS011;204;48.942;9.256;2022-10-31T06:04:15;9.03;;;8.53;;
434;SDS011;204;48.942;9.256;2022-10-31T06:06:41;16.60;;;8.90;;
434;SDS011;204;48.942;9.256;2022-10-31T06:09:07;12.83;;;8.40;;
434;SDS011;204;48.942;9.256;2022-10-31T06:11:32;10.93;;;8.27;;
434;SDS011;204;48.942;9.256;2022-10-31T06:13:58;14.77;;;8.77;;
434;SDS011;204;48.942;9.256;2022-10-31T06:16:23;15.37;;;9.13;;
434;SDS011;204;48.942;9.256;2022-10-31T06:18:49;9.37;;;8.07;;
434;SDS011;204;48.942;9.256;2022-10-31T06:21:14;15.57;;;10.10;;
434;SDS011;204;48.942;9.256;2022-10-31T06:23:40;11.07;;;9.10;;
434;SDS011;204;48.942;9.256;2022-10-31T06:26:05;14.20;;;9.83;;
434;SDS011;204;48.942;9.256;2022-10-31T06:28:31;16.23;;;9.80;;
434;SDS011;204;48.942;9.256;2022-10-31T06:30:56;13.73;;;8.80;;
434;SDS011;204;48.942;9.256;2022-10-31T06:33:22;7.93;;;7.53;;
434;SDS011;204;48.942;9.256;2022-10-31T06:35:47;12.50;;;8.77;;
434;SDS011;204;48.942;9.256;2022-10-31T06:38:13;9.93;;;8.03;;
434;SDS011;204;48.942;9.256;2022-10-31T06:40:39;12.93;;;8.90;;
434;SDS011;204;48.942;9.256;2022-10-31T06:43:06;10.40;;;7.90;;
434;SDS011;204;48.942;9.256;2022-10-31T06:45:31;8.30;;;7.10;;
434;SDS011;204;48.942;9.256;2022-10-31T06:47:57;14.40;;;8.53;;
434;SDS011;204;48.942;9.256;2022-10-31T06:50:23;14.33;;;7.87;;
434;SDS011;204;48.942;9.256;2022-10-31T06:52:55;14.63;;;8.10;;
434;SDS011;204;48.942;9.256;2022-10-31T06:55:22;10.32;;;7.90;;
434;SDS011;204;48.942;9.256;2022-10-31T06:57:56;9.05;;;7.97;;
434;SDS011;204;48.942;9.256;2022-10-31T07:00:23;14.25;;;9.35;;
434;SDS011;204;48.942;9.256;2022-10-31T07:02:59;11.27;;;9.30;;
434;SDS011;204;48.942;9.256;2022-10-31T07:05:27;13.65;;;8.90;;
434;SDS011;204;48.942;9.256;2022-10-31T07:07:54;11.27;;;9.20;;
434;SDS011;204;48.942;9.256;2022-10-31T07:10:27;11.88;;;8.35;;
434;SDS011;204;48.942;9.256;2022-10-31T07:12:58;10.25;;;8.35;;
434;SDS011;204;48.942;9.256;2022-10-31T07:15:29;10.50;;;8.23;;
434;SDS011;204;48.942;9.256;2022-10-31T07:18:05;8.65;;;8.15;;
434;SDS011;204;48.942;9.256;2022-10-31T07:20:31;12.88;;;8.18;;
434;SDS011;204;48.942;9.256;2022-10-31T07:22:57;8.70;;;8.17;;
434;SDS011;204;48.942;9.256;2022-10-31T07:25:23;14.90;;;8.60;;
434;SDS011;204;48.942;9.256;2022-10-31T07:27:49;9.80;;;7.18;;
434;SDS011;204;48.942;9.256;2022-10-31T07:30:16;13.25;;;8.50;;
434;SDS011;204;48.942;9.256;2022-10-31T07:32:44;8.75;;;8.25;;
434;SDS011;204;48.942;9.256;2022-10-31T07:35:12;9.10;;;8.32;;
434;SDS011;204;48.942;9.256;2022-10-31T07:37:40;13.55;;;8.90;;
434;SDS011;204;48.942;9.256;2022-10-31T07:40:06;14.40;;;8.63;;
434;SDS011;204;48.942;9.256;2022-10-31T07:42:36;9.50;;;8.70;;
434;SDS011;204;48.942;9.256;2022-10-31T07:45:02;11.57;;;8.75;;
434;SDS011;204;48.942;9.256;2022-10-31T07:47:28;11.60;;;9.68;;
434;SDS011;204;48.942;9.256;2022-10-31T07:49:54;14.73;;;9.83;;
434;SDS011;204;48.942;9.256;2022-10-31T07:52:19;12.10;;;10.03;;
434;SDS011;204;48.942;9.256;2022-10-31T07:54:45;10.50;;;8.37;;
434;SDS011;204;48.942;9.256;2022-10-31T07:57:10;12.10;;;10.20;;
434;SDS011;204;48.942;9.256;2022-10-31T07:59:36;11.73;;;9.30;;
434;SDS011;204;48.942;9.256;2022-10-31T08:02:02;12.83;;;9.77;;
434;SDS011;204;48.942;9.256;2022-10-31T08:04:27;10.40;;;9.07;;
434;SDS011;204;48.942;9.256;2022-10-31T08:06:53;12.30;;;8.67;;
434;SDS011;204;48.942;9.256;2022-10-31T08:09:18;12.43;;;9.07;;
434;SDS011;204;48.942;9.256;2022-10-31T08:11:44;16.00;;;8.63;;
434;SDS011;204;48.942;9.256;2022-10-31T08:14:09;10.90;;;8.30;;
434;SDS011;204;48.942;9.256;2022-10-31T08:16:35;9.70;;;7.00;;
434;SDS011;204;48.942;9.256;2022-10-31T08:19:00;12.07;;;6.97;;
434;SDS011;204;48.942;9.256;2022-10-31T08:21:26;8.87;;;7.17;;
434;SDS011;204;48.942;9.256;2022-10-31T08:23:51;13.57;;;7.90;;
434;SDS011;204;48.942;9.256;2022-10-31T08:26:17;9.03;;;7.50;;
434;SDS011;204;48.942;9.256;2022-10-31T08:28:42;9.23;;;6.83;;
434;SDS011;204;48.942;9.256;2022-10-31T08:31:08;7.60;;;6.47;;
434;SDS011;204;48.942;9.256;2022-10-31T08:33:35;10.43;;;7.75;;
434;SDS011;204;48.942;9.256;2022-10-31T08:36:00;11.30;;;7.90;;
434;SDS011;204;48.942;9.256;2022-10-31T08:38:26;8.23;;;7.10;;
434;SDS011;204;48.942;9.256;2022-10-31T08:40:51;8.53;;;6.90;;
434;SDS011;204;48.942;9.256;2022-10-31T08:43:17;8.40;;;6.60;;
434;SDS011;204;48.942;9.256;2022-10-31T08:45:44;8.32;;;6.72;;
434;SDS011;204;48.942;9.256;2022-10-31T08:48:13;11.30;;;6.93;;
434;SDS011;204;48.942;9.256;2022-10-31T08:50:40;10.18;;;8.00;;
434;SDS011;204;48.942;9.256;2022-10-31T08:53:08;10.32;;;7.53;;
434;SDS011;204;48.942;9.256;2022-10-31T08:55:36;12.13;;;7.72;;
434;SDS011;204;48.942;9.256;2022-10-31T08:58:06;10.60;;;6.75;;
434;SDS011;204;48.942;9.256;2022-10-31T09:00:34;10.75;;;7.75;;
434;SDS011;204;48.942;9.256;2022-10-31T09:03:01;9.32;;;8.45;;
434;SDS011;204;48.942;9.256;2022-10-31T09:05:28;12.68;;;8.30;;
434;SDS011;204;48.942;9.256;2022-10-31T09:07:55;9.20;;;8.65;;
434;SDS011;204;48.942;9.256;2022-10-31T09:10:22;16.70;;;12.07;;
434;SDS011;204;48.942;9.256;2022-10-31T09:12:53;11.77;;;7.90;;
434;SDS011;204;48.942;9.256;2022-10-31T09:15:20;13.13;;;7.97;;
434;SDS011;204;48.942;9.256;2022-10-31T09:17:46;9.53;;;7.53;;
434;SDS011;204;48.942;9.256;2022-10-31T09:20:12;8.30;;;7.53;;
434;SDS011;204;48.942;9.256;2022-10-31T09:22:38;14.50;;;10.40;;
434;SDS011;204;48.942;9.256;2022-10-31T09:25:04;10.97;;;8.83;;
434;SDS011;204;48.942;9.256;2022-10-31T09:27:29;12.93;;;11.60;;
434;SDS011;204;48.942;9.256;2022-10-31T09:29:55;8.63;;;8.00;;
434;SDS011;204;48.942;9.256;2022-10-31T09:32:20;7.97;;;7.23;;
434;SDS011;204;48.942;9.256;2022-10-31T09:34:46;10.77;;;7.83;;
434;SDS011;204;48.942;9.256;2022-10-31T09:37:11;11.00;;;8.03;;
434;SDS011;204;48.942;9.256;2022-10-31T09:39:37;10.83;;;8.63;;
434;SDS011;204;48.942;9.256;2022-10-31T09:45:21;11.30;;;7.60;;
434;SDS011;204;48.942;9.256;2022-10-31T09:50:52;8.52;;;7.90;;
434;SDS011;204;48.942;9.256;2022-10-31T09:56:01;12.45;;;7.57;;
434;SDS011;204;48.942;9.256;2022-10-31T09:58:29;8.02;;;7.22;;
434;SDS011;204;48.942;9.256;2022-10-31T10:00:58;7.53;;;7.07;;
434;SDS011;204;48.942;9.256;2022-10-31T10:03:34;11.00;;;7.82;;
434;SDS011;204;48.942;9.256;2022-10-31T10:06:22;10.63;;;9.40;;
434;SDS011;204;48.942;9.256;2022-10-31T10:08:50;16.63;;;8.70;;
434;SDS011;204;48.942;9.256;2022-10-31T10:19:41;8.73;;;7.25;;
434;SDS011;204;48.942;9.256;2022-10-31T10:25:20;14.00;;;7.60;;
434;SDS011;204;48.942;9.256;2022-10-31T10:33:33;7.80;;;7.17;;
434;SDS011;204;48.942;9.256;2022-10-31T10:36:04;12.80;;;7.40;;
434;SDS011;204;48.942;9.256;2022-10-31T10:38:36;12.43;;;7.30;;
434;SDS011;204;48.942;9.256;2022-10-31T10:41:18;7.83;;;7.43;;
434;SDS011;204;48.942;9.256;2022-10-31T10:43:45;9.30;;;8.10;;
434;SDS011;204;48.942;9.256;2022-10-31T10:57:56;19.37;;;18.37;;
434;SDS011;204;48.942;9.256;2022-10-31T11:02:55;8.70;;;8.20;;
434;SDS011;204;48.942;9.256;2022-10-31T11:05:35;9.50;;;7.20;;
434;SDS011;204;48.942;9.256;2022-10-31T11:08:01;11.73;;;7.57;;
434;SDS011;204;48.942;9.256;2022-10-31T11:10:28;9.07;;;7.83;;
434;SDS011;204;48.942;9.256;2022-10-31T11:12:58;10.77;;;7.67;;
434;SDS011;204;48.942;9.256;2022-10-31T11:15:54;9.30;;;6.60;;
434;SDS011;204;48.942;9.256;2022-10-31T11:18:26;8.80;;;7.63;;
434;SDS011;204;48.942;9.256;2022-10-31T11:20:55;13.77;;;7.30;;
434;SDS011;204;48.942;9.256;2022-10-31T11:23:23;8.07;;;7.67;;
434;SDS011;204;48.942;9.256;2022-10-31T11:28:19;7.67;;;6.33;;
434;SDS011;204;48.942;9.256;2022-10-31T11:30:50;6.90;;;6.50;;
434;SDS011;204;48.942;9.256;2022-10-31T11:36:04;12.40;;;7.00;;
434;SDS011;204;48.942;9.256;2022-10-31T11:38:41;10.23;;;7.10;;
434;SDS011;204;48.942;9.256;2022-10-31T11:41:15;11.07;;;7.60;;
434;SDS011;204;48.942;9.256;2022-10-31T11:49:05;10.53;;;8.33;;
434;SDS011;204;48.942;9.256;2022-10-31T11:51:41;10.37;;;7.40;;
434;SDS011;204;48.942;9.256;2022-10-31T11:54:14;8.10;;;7.20;;
434;SDS011;204;48.942;9.256;2022-10-31T11:56:45;9.53;;;7.37;;
434;SDS011;204;48.942;9.256;2022-10-31T11:59:22;8.73;;;7.97;;
434;SDS011;204;48.942;9.256;2022-10-31T12:01:49;8.33;;;6.90;;
434;SDS011;204;48.942;9.256;2022-10-31T12:04:16;8.50;;;7.00;;
434;SDS011;204;48.942;9.256;2022-10-31T12:06:45;10.43;;;7.50;;
434;SDS011;204;48.942;9.256;2022-10-31T12:09:28;11.00;;;8.20;;
434;SDS011;204;48.942;9.256;2022-10-31T12:25:21;9.33;;;6.87;;
434;SDS011;204;48.942;9.256;2022-10-31T12:28:07;8.17;;;7.70;;
434;SDS011;204;48.942;9.256;2022-10-31T12:30:46;14.40;;;7.80;;
434;SDS011;204;48.942;9.256;2022-10-31T12:39:10;14.87;;;12.37;;
434;SDS011;204;48.942;9.256;2022-10-31T12:44:53;13.57;;;8.33;;
434;SDS011;204;48.942;9.256;2022-10-31T12:47:32;12.70;;;7.60;;
434;SDS011;204;48.942;9.256;2022-10-31T12:55:16;12.33;;;7.43;;
434;SDS011;204;48.942;9.256;2022-10-31T12:58:10;9.60;;;7.90;;
434;SDS011;204;48.942;9.256;2022-10-31T13:01:06;9.70;;;8.13;;
434;SDS011;204;48.942;9.256;2022-10-31T13:06:23;14.37;;;7.87;;
434;SDS011;204;48.942;9.256;2022-10-31T13:08:55;9.53;;;7.17;;
434;SDS011;204;48.942;9.256;2022-10-31T13:11:27;9.17;;;7.13;;
434;SDS011;204;48.942;9.256;2022-10-31T13:14:07;9.93;;;7.30;;
434;SDS011;204;48.942;9.256;2022-10-31T13:16:48;9.03;;;7.77;;
434;SDS011;204;48.942;9.256;2022-10-31T13:19:16;8.67;;;8.17;;
434;SDS011;204;48.942;9.256;2022-10-31T13:21:57;8.70;;;8.20;;
434;SDS011;204;48.942;9.256;2022-10-31T13:27:01;10.20;;;7.10;;
434;SDS011;204;48.942;9.256;2022-10-31T13:29:33;10.13;;;7.53;;
434;SDS011;204;48.942;9.256;2022-10-31T13:32:06;9.37;;;7.63;;
434;SDS011;204;48.942;9.256;2022-10-31T13:34:34;8.77;;;7.33;;
434;SDS011;204;48.942;9.256;2022-10-31T13:45:19;10.53;;;7.90;;
434;SDS011;204;48.942;9.256;2022-10-31T13:50:40;11.20;;;8.57;;
434;SDS011;204;48.942;9.256;2022-10-31T13:55:46;35.23;;;8.77;;
434;SDS011;204;48.942;9.256;2022-10-31T14:03:43;14.80;;;8.70;;
434;SDS011;204;48.942;9.256;2022-10-31T14:06:11;11.00;;;8.07;;
434;SDS011;204;48.942;9.256;2022-10-31T14:08:39;12.93;;;7.50;;
434;SDS011;204;48.942;9.256;2022-10-31T14:11:18;16.00;;;9.63;;
434;SDS011;204;48.942;9.256;2022-10-31T14:13:52;19.40;;;15.83;;
434;SDS011;204;48.942;9.256;2022-10-31T14:16:25;14.30;;;9.30;;
434;SDS011;204;48.942;9.256;2022-10-31T14:19:13;9.20;;;8.70;;
434;SDS011;204;48.942;9.256;2022-10-31T14:21:43;15.27;;;8.20;;
434;SDS011;204;48.942;9.256;2022-10-31T14:24:52;11.70;;;8.40;;
434;SDS011;204;48.942;9.256;2022-10-31T14:27:29;16.13;;;9.50;;
434;SDS011;204;48.942;9.256;2022-10-31T14:29:49;10.73;;;8.53;;
434;SDS011;204;48.942;9.256;2022-10-31T14:32:24;12.00;;;9.60;;
434;SDS011;204;48.942;9.256;2022-10-31T14:34:57;17.20;;;8.57;;
434;SDS011;204;48.942;9.256;2022-10-31T14:51:35;13.67;;;9.33;;
434;SDS011;204;48.942;9.256;2022-10-31T14:54:04;11.17;;;9.03;;
434;SDS011;204;48.942;9.256;2022-10-31T14:56:34;13.30;;;8.50;;
434;SDS011;204;48.942;9.256;2022-10-31T14:59:03;9.93;;;8.87;;
434;SDS011;204;48.942;9.256;2022-10-31T15:01:34;16.60;;;9.30;;
434;SDS011;204;48.942;9.256;2022-10-31T15:07:02;13.17;;;9.40;;
434;SDS011;204;48.942;9.256;2022-10-31T15:09:44;11.60;;;9.60;;
434;SDS011;204;48.942;9.256;2022-10-31T15:12:43;13.87;;;8.80;;
434;SDS011;204;48.942;9.256;2022-10-31T15:15:11;16.90;;;10.20;;
434;SDS011;204;48.942;9.256;2022-10-31T15:17:41;9.53;;;8.53;;
434;SDS011;204;48.942;9.256;2022-10-31T15:20:12;18.93;;;10.30;;
434;SDS011;204;48.942;9.256;2022-10-31T15:22:44;12.33;;;9.60;;
434;SDS011;204;48.942;9.256;2022-10-31T15:25:18;14.43;;;9.20;;
434;SDS011;204;48.942;9.256;2022-10-31T15:27:45;10.83;;;10.07;;
434;SDS011;204;48.942;9.256;2022-10-31T15:30:19;19.13;;;15.00;;
434;SDS011;204;48.942;9.256;2022-10-31T15:32:47;15.13;;;11.30;;
434;SDS011;204;48.942;9.256;2022-10-31T15:35:24;24.33;;;16.97;;
434;SDS011;204;48.942;9.256;2022-10-31T15:37:51;25.60;;;17.60;;
434;SDS011;204;48.942;9.256;2022-10-31T15:40:18;35.87;;;25.80;;
434;SDS011;204;48.942;9.256;2022-10-31T15:42:56;33.30;;;22.67;;
434;SDS011;204;48.942;9.256;2022-10-31T15:45:25;17.40;;;12.73;;
434;SDS011;204;48.942;9.256;2022-10-31T15:50:44;38.50;;;36.60;;
434;SDS011;204;48.942;9.256;2022-10-31T15:53:47;37.55;;;32.40;;
434;SDS011;204;48.942;9.256;2022-10-31T15:56:25;35.50;;;31.57;;
434;SDS011;204;48.942;9.256;2022-10-31T15:58:53;29.35;;;21.90;;
434;SDS011;204;48.942;9.256;2022-10-31T16:01:25;21.43;;;15.97;;
434;SDS011;204;48.942;9.256;2022-10-31T16:06:36;20.42;;;14.32;;
434;SDS011;204;48.942;9.256;2022-10-31T16:09:03;25.40;;;18.17;;
434;SDS011;204;48.942;9.256;2022-10-31T16:11:43;22.77;;;13.85;;
434;SDS011;204;48.942;9.256;2022-10-31T16:16:39;25.00;;;16.37;;
434;SDS011;204;48.942;9.256;2022-10-31T16:19:12;21.20;;;13.73;;
434;SDS011;204;48.942;9.256;2022-10-31T16:22:02;21.63;;;14.45;;
434;SDS011;204;48.942;9.256;2022-10-31T16:24:44;23.63;;;14.25;;
434;SDS011;204;48.942;9.256;2022-10-31T16:27:22;17.55;;;13.40;;
434;SDS011;204;48.942;9.256;2022-10-31T16:29:59;23.08;;;16.30;;
434;SDS011;204;48.942;9.256;2022-10-31T16:35:17;23.80;;;14.55;;
434;SDS011;204;48.942;9.256;2022-10-31T16:37:48;21.70;;;14.20;;
434;SDS011;204;48.942;9.256;2022-10-31T16:40:14;24.10;;;16.50;;
434;SDS011;204;48.942;9.256;2022-10-31T16:42:40;20.08;;;14.82;;
434;SDS011;204;48.942;9.256;2022-10-31T16:45:06;21.95;;;16.90;;
434;SDS011;204;48.942;9.256;2022-10-31T16:47:33;27.55;;;18.38;;
434;SDS011;204;48.942;9.256;2022-10-31T16:49:59;33.80;;;18.43;;
434;SDS011;204;48.942;9.256;2022-10-31T16:52:25;27.53;;;16.40;;
434;SDS011;204;48.942;9.256;2022-10-31T16:54:51;25.50;;;16.20;;
434;SDS011;204;48.942;9.256;2022-10-31T16:57:21;22.83;;;17.17;;
434;SDS011;204;48.942;9.256;2022-10-31T16:59:52;20.48;;;16.48;;
434;SDS011;204;48.942;9.256;2022-10-31T17:02:21;20.75;;;15.90;;
434;SDS011;204;48.942;9.256;2022-10-31T17:04:47;23.27;;;18.30;;
434;SDS011;204;48.942;9.256;2022-10-31T17:07:12;30.97;;;18.97;;
434;SDS011;204;48.942;9.256;2022-10-31T17:09:38;26.87;;;19.93;;
434;SDS011;204;48.942;9.256;2022-10-31T17:12:03;31.80;;;19.87;;
434;SDS011;204;48.942;9.256;2022-10-31T17:14:31;26.92;;;20.80;;
434;SDS011;204;48.942;9.256;2022-10-31T17:16:57;27.05;;;19.55;;
434;SDS011;204;48.942;9.256;2022-10-31T17:19:23;29.20;;;24.30;;
434;SDS011;204;48.942;9.256;2022-10-31T17:21:48;26.43;;;21.77;;
434;SDS011;204;48.942;9.256;2022-10-31T17:24:14;26.40;;;21.80;;
434;SDS011;204;48.942;9.256;2022-10-31T17:26:40;30.73;;;20.50;;
434;SDS011;204;48.942;9.256;2022-10-31T17:29:06;26.70;;;18.30;;
434;SDS011;204;48.942;9.256;2022-10-31T17:31:32;24.33;;;16.50;;
434;SDS011;204;48.942;9.256;2022-10-31T17:34:00;19.77;;;16.20;;
434;SDS011;204;48.942;9.256;2022-10-31T17:36:29;19.95;;;16.73;;
434;SDS011;204;48.942;9.256;2022-10-31T17:38:55;18.33;;;14.55;;
434;SDS011;204;48.942;9.256;2022-10-31T17:41:21;17.33;;;15.30;;
434;SDS011;204;48.942;9.256;2022-10-31T17:43:46;16.17;;;13.53;;
434;SDS011;204;48.942;9.256;2022-10-31T17:46:12;18.63;;;14.63;;
434;SDS011;204;48.942;9.256;2022-10-31T17:48:38;16.85;;;14.38;;
434;SDS011;204;48.942;9.256;2022-10-31T17:51:04;16.03;;;13.73;;
434;SDS011;204;48.942;9.256;2022-10-31T17:53:31;19.13;;;14.60;;
434;SDS011;204;48.942;9.256;2022-10-31T17:56:08;16.90;;;15.18;;
434;SDS011;204;48.942;9.256;2022-10-31T17:58:34;17.80;;;13.80;;
434;SDS011;204;48.942;9.256;2022-10-31T18:01:05;19.83;;;14.43;;
434;SDS011;204;48.942;9.256;2022-10-31T18:03:38;20.60;;;16.17;;
434;SDS011;204;48.942;9.256;2022-10-31T18:06:05;19.15;;;15.05;;
434;SDS011;204;48.942;9.256;2022-10-31T18:08:31;20.70;;;17.50;;
434;SDS011;204;48.942;9.256;2022-10-31T18:11:03;24.30;;;18.33;;
434;SDS011;204;48.942;9.256;2022-10-31T18:13:30;25.13;;;20.55;;
434;SDS011;204;48.942;9.256;2022-10-31T18:15:56;26.37;;;22.23;;
434;SDS011;204;48.942;9.256;2022-10-31T18:18:21;22.30;;;20.00;;
434;SDS011;204;48.942;9.256;2022-10-31T18:20:47;25.70;;;22.10;;
434;SDS011;204;48.942;9.256;2022-10-31T18:23:12;31.30;;;25.37;;
434;SDS011;204;48.942;9.256;2022-10-31T18:25:38;35.10;;;27.80;;
434;SDS011;204;48.942;9.256;2022-10-31T18:28:05;31.08;;;27.48;;
434;SDS011;204;48.942;9.256;2022-10-31T18:30:31;27.40;;;23.30;;
434;SDS011;204;48.942;9.256;2022-10-31T18:32:57;27.65;;;24.13;;
434;SDS011;204;48.942;9.256;2022-10-31T18:35:22;27.20;;;23.67;;
434;SDS011;204;48.942;9.256;2022-10-31T18:37:48;31.90;;;26.10;;